sensor_id;sensor_type;location;lat;lon;timestamp;temperature;humidity
46085;DHT22;31823;47.032;8.310;2024-03-06T00:00:47;1.80;99.90
46085;DHT22;31823;47.032;8.310;2024-03-06T00:03:13;1.80;99.90
46085;DHT22;31823;47.032;8.310;2024-03-06T00:05:38;1.80;99.90
46085;DHT22;31823;47.032;8.310;2024-03-06T00:08:04;1.90;99.90
46085;DHT22;31823;47.032;8.310;2024-03-06T00:10:30;1.90;99.90
46085;DHT22;31823;47.032;8.310;2024-03-06T00:12:55;1.90;99.90
46085;DHT22;31823;47.032;8.310;2024-03-06T00:15:21;1.80;99.90
46085;DHT22;31823;47.032;8.310;2024-03-06T00:17:46;1.80;99.90
46085;DHT22;31823;47.032;8.310;2024-03-06T00:20:12;1.90;99.90
46085;DHT22;31823;47.032;8.310;2024-03-06T00:22:39;1.90;99.90
46085;DHT22;31823;47.032;8.310;2024-03-06T00:25:05;1.90;99.90
46085;DHT22;31823;47.032;8.310;2024-03-06T00:27:31;2.00;99.90
46085;DHT22;31823;47.032;8.310;2024-03-06T00:29:56;1.80;99.90
46085;DHT22;31823;47.032;8.310;2024-03-06T00:32:23;1.80;99.90
46085;DHT22;31823;47.032;8.310;2024-03-06T00:34:49;1.70;99.90
46085;DHT22;31823;47.032;8.310;2024-03-06T00:37:14;1.80;99.90
46085;DHT22;31823;47.032;8.310;2024-03-06T00:39:40;1.80;99.90
46085;DHT22;31823;47.032;8.310;2024-03-06T00:42:05;1.80;99.90
46085;DHT22;31823;47.032;8.310;2024-03-06T00:44:33;1.80;99.90
46085;DHT22;31823;47.032;8.310;2024-03-06T00:46:58;1.80;99.90
46085;DHT22;31823;47.032;8.310;2024-03-06T00:49:24;1.80;99.90
46085;DHT22;31823;47.032;8.310;2024-03-06T00:51:50;1.80;99.90
46085;DHT22;31823;47.032;8.310;2024-03-06T00:54:15;1.80;99.90
46085;DHT22;31823;47.032;8.310;2024-03-06T00:56:41;1.80;99.90
46085;DHT22;31823;47.032;8.310;2024-03-06T00:59:07;1.70;99.90
46085;DHT22;31823;47.032;8.310;2024-03-06T01:01:32;1.70;99.90
46085;DHT22;31823;47.032;8.310;2024-03-06T01:03:58;1.60;99.90
46085;DHT22;31823;47.032;8.310;2024-03-06T01:06:23;1.70;99.90
46085;DHT22;31823;47.032;8.310;2024-03-06T01:08:49;1.60;99.90
46085;DHT22;31823;47.032;8.310;2024-03-06T01:11:14;1.50;99.90
46085;DHT22;31823;47.032;8.310;2024-03-06T01:13:40;1.50;99.90
46085;DHT22;31823;47.032;8.310;2024-03-06T01:16:06;1.50;99.90
46085;DHT22;31823;47.032;8.310;2024-03-06T01:18:32;1.50;99.90
46085;DHT22;31823;47.032;8.310;2024-03-06T01:20:58;1.40;99.90
46085;DHT22;31823;47.032;8.310;2024-03-06T01:23:23;1.50;99.90
46085;DHT22;31823;47.032;8.310;2024-03-06T01:25:49;1.50;99.90
46085;DHT22;31823;47.032;8.310;2024-03-06T01:28:14;1.40;99.90
46085;DHT22;31823;47.032;8.310;2024-03-06T01:30:40;1.30;99.90
46085;DHT22;31823;47.032;8.310;2024-03-06T01:33:06;1.30;99.90
46085;DHT22;31823;47.032;8.310;2024-03-06T01:35:31;1.20;99.90
46085;DHT22;31823;47.032;8.310;2024-03-06T01:37:57;1.20;99.90
46085;DHT22;31823;47.032;8.310;2024-03-06T01:40:23;1.10;99.90
46085;DHT22;31823;47.032;8.310;2024-03-06T01:42:49;1.10;99.90
46085;DHT22;31823;47.032;8.310;2024-03-06T01:45:15;1.10;99.90
46085;DHT22;31823;47.032;8.310;2024-03-06T01:47:41;1.10;99.90
46085;DHT22;31823;47.032;8.310;2024-03-06T01:50:07;1.10;99.90
46085;DHT22;31823;47.032;8.310;2024-03-06T01:52:35;1.00;99.90
46085;DHT22;31823;47.032;8.310;2024-03-06T01:55:02;1.00;99.90
46085;DHT22;31823;47.032;8.310;2024-03-06T01:57:28;1.00;99.90
46085;DHT22;31823;47.032;8.310;2024-03-06T01:59:54;1.00;99.90
46085;DHT22;31823;47.032;8.310;2024-03-06T02:02:20;1.10;99.90
46085;DHT22;31823;47.032;8.310;2024-03-06T02:04:46;1.10;99.90
46085;DHT22;31823;47.032;8.310;2024-03-06T02:07:13;1.10;99.90
46085;DHT22;31823;47.032;8.310;2024-03-06T02:09:39;1.00;99.90
46085;DHT22;31823;47.032;8.310;2024-03-06T02:12:06;1.00;99.90
46085;DHT22;31823;47.032;8.310;2024-03-06T02:14:36;0.90;99.90
46085;DHT22;31823;47.032;8.310;2024-03-06T02:17:02;0.80;99.90
46085;DHT22;31823;47.032;8.310;2024-03-06T02:19:41;0.80;99.90
46085;DHT22;31823;47.032;8.310;2024-03-06T02:22:08;0.90;99.90
46085;DHT22;31823;47.032;8.310;2024-03-06T02:24:34;0.90;99.90
46085;DHT22;31823;47.032;8.310;2024-03-06T02:26:59;0.90;99.90
46085;DHT22;31823;47.032;8.310;2024-03-06T02:29:25;0.90;99.90
46085;DHT22;31823;47.032;8.310;2024-03-06T02:31:51;1.00;99.90
46085;DHT22;31823;47.032;8.310;2024-03-06T02:34:16;1.00;99.90
46085;DHT22;31823;47.032;8.310;2024-03-06T02:36:42;0.90;99.90
46085;DHT22;31823;47.032;8.310;2024-03-06T02:39:07;0.90;99.90
46085;DHT22;31823;47.032;8.310;2024-03-06T02:41:35;0.90;99.90
46085;DHT22;31823;47.032;8.310;2024-03-06T02:44:01;0.80;99.90
46085;DHT22;31823;47.032;8.310;2024-03-06T02:46:27;0.80;99.90
46085;DHT22;31823;47.032;8.310;2024-03-06T02:48:52;0.80;99.90
46085;DHT22;31823;47.032;8.310;2024-03-06T02:51:19;0.90;99.90
46085;DHT22;31823;47.032;8.310;2024-03-06T02:53:45;0.80;99.90
46085;DHT22;31823;47.032;8.310;2024-03-06T02:56:16;0.90;99.90
46085;DHT22;31823;47.032;8.310;2024-03-06T02:58:42;0.80;99.90
46085;DHT22;31823;47.032;8.310;2024-03-06T03:01:08;0.80;99.90
46085;DHT22;31823;47.032;8.310;2024-03-06T03:03:34;0.80;99.90
46085;DHT22;31823;47.032;8.310;2024-03-06T03:06:00;0.80;99.90
46085;DHT22;31823;47.032;8.310;2024-03-06T03:08:26;0.90;99.90
46085;DHT22;31823;47.032;8.310;2024-03-06T03:10:52;0.90;99.90
46085;DHT22;31823;47.032;8.310;2024-03-06T03:13:17;0.80;99.90
46085;DHT22;31823;47.032;8.310;2024-03-06T03:15:43;0.90;99.90
46085;DHT22;31823;47.032;8.310;2024-03-06T03:18:09;0.90;99.90
46085;DHT22;31823;47.032;8.310;2024-03-06T03:20:34;0.80;99.90
46085;DHT22;31823;47.032;8.310;2024-03-06T03:23:02;0.80;99.90
46085;DHT22;31823;47.032;8.310;2024-03-06T03:25:27;0.80;99.90
46085;DHT22;31823;47.032;8.310;2024-03-06T03:27:53;0.80;99.90
46085;DHT22;31823;47.032;8.310;2024-03-06T03:30:18;0.80;99.90
46085;DHT22;31823;47.032;8.310;2024-03-06T03:32:48;0.80;99.90
46085;DHT22;31823;47.032;8.310;2024-03-06T03:35:14;0.80;99.90
46085;DHT22;31823;47.032;8.310;2024-03-06T03:37:39;0.80;99.90
46085;DHT22;31823;47.032;8.310;2024-03-06T03:40:06;0.90;99.90
46085;DHT22;31823;47.032;8.310;2024-03-06T03:42:32;0.90;99.90
46085;DHT22;31823;47.032;8.310;2024-03-06T03:44:58;0.80;99.90
46085;DHT22;31823;47.032;8.310;2024-03-06T03:47:23;0.80;99.90
46085;DHT22;31823;47.032;8.310;2024-03-06T03:49:49;0.90;99.90
46085;DHT22;31823;47.032;8.310;2024-03-06T03:52:15;0.80;99.90
46085;DHT22;31823;47.032;8.310;2024-03-06T03:54:41;0.70;99.90
46085;DHT22;31823;47.032;8.310;2024-03-06T03:57:07;0.80;99.90
46085;DHT22;31823;47.032;8.310;2024-03-06T03:59:33;0.80;99.90
46085;DHT22;31823;47.032;8.310;2024-03-06T04:01:59;0.80;99.90
46085;DHT22;31823;47.032;8.310;2024-03-06T04:04:25;0.80;99.90
46085;DHT22;31823;47.032;8.310;2024-03-06T04:06:50;0.90;99.90
46085;DHT22;31823;47.032;8.310;2024-03-06T04:09:16;0.80;99.90
46085;DHT22;31823;47.032;8.310;2024-03-06T04:11:42;0.90;99.90
46085;DHT22;31823;47.032;8.310;2024-03-06T04:14:08;0.90;99.90
46085;DHT22;31823;47.032;8.310;2024-03-06T04:16:34;0.80;99.90
46085;DHT22;31823;47.032;8.310;2024-03-06T04:19:00;0.80;99.90
46085;DHT22;31823;47.032;8.310;2024-03-06T04:21:26;0.80;99.90
46085;DHT22;31823;47.032;8.310;2024-03-06T04:23:51;0.80;99.90
46085;DHT22;31823;47.032;8.310;2024-03-06T04:26:17;0.70;99.90
46085;DHT22;31823;47.032;8.310;2024-03-06T04:28:43;0.80;99.90
46085;DHT22;31823;47.032;8.310;2024-03-06T04:31:09;0.80;99.90
46085;DHT22;31823;47.032;8.310;2024-03-06T04:33:35;0.80;99.90
46085;DHT22;31823;47.032;8.310;2024-03-06T04:36:04;0.80;99.90
46085;DHT22;31823;47.032;8.310;2024-03-06T04:38:33;0.70;99.90
46085;DHT22;31823;47.032;8.310;2024-03-06T04:40:59;0.90;99.90
46085;DHT22;31823;47.032;8.310;2024-03-06T04:43:25;0.80;99.90
46085;DHT22;31823;47.032;8.310;2024-03-06T04:45:50;0.80;99.90
46085;DHT22;31823;47.032;8.310;2024-03-06T04:48:16;0.80;99.90
46085;DHT22;31823;47.032;8.310;2024-03-06T04:50:41;0.80;99.90
46085;DHT22;31823;47.032;8.310;2024-03-06T04:53:07;0.80;99.90
46085;DHT22;31823;47.032;8.310;2024-03-06T04:55:33;0.80;99.90
46085;DHT22;31823;47.032;8.310;2024-03-06T04:57:59;0.70;99.90
46085;DHT22;31823;47.032;8.310;2024-03-06T05:00:24;0.80;99.90
46085;DHT22;31823;47.032;8.310;2024-03-06T05:02:50;0.80;99.90
46085;DHT22;31823;47.032;8.310;2024-03-06T05:05:15;0.70;99.90
46085;DHT22;31823;47.032;8.310;2024-03-06T05:07:41;0.70;99.90
46085;DHT22;31823;47.032;8.310;2024-03-06T05:10:07;0.80;99.90
46085;DHT22;31823;47.032;8.310;2024-03-06T05:12:33;0.70;99.90
46085;DHT22;31823;47.032;8.310;2024-03-06T05:15:00;0.70;99.90
46085;DHT22;31823;47.032;8.310;2024-03-06T05:17:25;0.80;99.90
46085;DHT22;31823;47.032;8.310;2024-03-06T05:19:51;0.90;99.90
46085;DHT22;31823;47.032;8.310;2024-03-06T05:22:17;0.80;99.90
46085;DHT22;31823;47.032;8.310;2024-03-06T05:24:43;0.80;99.90
46085;DHT22;31823;47.032;8.310;2024-03-06T05:27:09;0.80;99.90
46085;DHT22;31823;47.032;8.310;2024-03-06T05:29:38;0.80;99.90
46085;DHT22;31823;47.032;8.310;2024-03-06T05:32:05;0.70;99.90
46085;DHT22;31823;47.032;8.310;2024-03-06T05:34:32;0.70;99.90
46085;DHT22;31823;47.032;8.310;2024-03-06T05:36:59;0.70;99.90
46085;DHT22;31823;47.032;8.310;2024-03-06T05:39:25;0.70;99.90
46085;DHT22;31823;47.032;8.310;2024-03-06T05:41:50;0.70;99.90
46085;DHT22;31823;47.032;8.310;2024-03-06T05:44:16;0.70;99.90
46085;DHT22;31823;47.032;8.310;2024-03-06T05:46:41;0.70;99.90
46085;DHT22;31823;47.032;8.310;2024-03-06T05:49:07;0.70;99.90
46085;DHT22;31823;47.032;8.310;2024-03-06T05:51:33;0.70;99.90
46085;DHT22;31823;47.032;8.310;2024-03-06T05:53:58;0.80;99.90
46085;DHT22;31823;47.032;8.310;2024-03-06T05:56:24;0.80;99.90
46085;DHT22;31823;47.032;8.310;2024-03-06T05:58:49;0.80;99.90
46085;DHT22;31823;47.032;8.310;2024-03-06T06:01:16;0.70;99.90
46085;DHT22;31823;47.032;8.310;2024-03-06T06:03:46;0.60;99.90
46085;DHT22;31823;47.032;8.310;2024-03-06T06:06:14;0.60;99.90
46085;DHT22;31823;47.032;8.310;2024-03-06T06:08:39;0.60;99.90
46085;DHT22;31823;47.032;8.310;2024-03-06T06:11:05;0.60;99.90
46085;DHT22;31823;47.032;8.310;2024-03-06T06:13:30;0.70;99.90
46085;DHT22;31823;47.032;8.310;2024-03-06T06:15:59;0.70;99.90
46085;DHT22;31823;47.032;8.310;2024-03-06T06:18:28;0.80;99.90
46085;DHT22;31823;47.032;8.310;2024-03-06T06:20:53;0.80;99.90
46085;DHT22;31823;47.032;8.310;2024-03-06T06:23:19;0.80;99.90
46085;DHT22;31823;47.032;8.310;2024-03-06T06:25:44;0.80;99.90
46085;DHT22;31823;47.032;8.310;2024-03-06T06:28:11;0.80;99.90
46085;DHT22;31823;47.032;8.310;2024-03-06T06:30:36;0.80;99.90
46085;DHT22;31823;47.032;8.310;2024-03-06T06:33:04;0.80;99.90
46085;DHT22;31823;47.032;8.310;2024-03-06T06:35:30;0.80;99.90
46085;DHT22;31823;47.032;8.310;2024-03-06T06:37:55;0.70;99.90
46085;DHT22;31823;47.032;8.310;2024-03-06T06:40:21;0.80;99.90
46085;DHT22;31823;47.032;8.310;2024-03-06T06:42:48;0.70;99.90
46085;DHT22;31823;47.032;8.310;2024-03-06T06:45:17;0.70;99.90
46085;DHT22;31823;47.032;8.310;2024-03-06T06:47:43;0.70;99.90
46085;DHT22;31823;47.032;8.310;2024-03-06T06:50:09;0.80;99.90
46085;DHT22;31823;47.032;8.310;2024-03-06T06:52:36;0.70;99.90
46085;DHT22;31823;47.032;8.310;2024-03-06T06:55:02;0.80;99.90
46085;DHT22;31823;47.032;8.310;2024-03-06T06:57:28;0.70;99.90
46085;DHT22;31823;47.032;8.310;2024-03-06T06:59:53;0.80;99.90
46085;DHT22;31823;47.032;8.310;2024-03-06T07:02:19;0.80;99.90
46085;DHT22;31823;47.032;8.310;2024-03-06T07:04:45;0.80;99.90
46085;DHT22;31823;47.032;8.310;2024-03-06T07:07:10;0.80;99.90
46085;DHT22;31823;47.032;8.310;2024-03-06T07:09:36;0.80;99.90
46085;DHT22;31823;47.032;8.310;2024-03-06T07:12:02;0.80;99.90
46085;DHT22;31823;47.032;8.310;2024-03-06T07:14:28;0.80;99.90
46085;DHT22;31823;47.032;8.310;2024-03-06T07:16:54;0.80;99.90
46085;DHT22;31823;47.032;8.310;2024-03-06T07:19:19;0.80;99.90
46085;DHT22;31823;47.032;8.310;2024-03-06T07:21:45;0.80;99.90
46085;DHT22;31823;47.032;8.310;2024-03-06T07:24:11;0.80;99.90
46085;DHT22;31823;47.032;8.310;2024-03-06T07:26:36;0.80;99.90
46085;DHT22;31823;47.032;8.310;2024-03-06T07:29:02;0.80;99.90
46085;DHT22;31823;47.032;8.310;2024-03-06T07:31:28;0.90;99.90
46085;DHT22;31823;47.032;8.310;2024-03-06T07:33:54;0.90;99.90
46085;DHT22;31823;47.032;8.310;2024-03-06T07:36:20;0.80;99.90
46085;DHT22;31823;47.032;8.310;2024-03-06T07:38:46;0.90;99.90
46085;DHT22;31823;47.032;8.310;2024-03-06T07:41:12;0.80;99.90
46085;DHT22;31823;47.032;8.310;2024-03-06T07:43:37;0.80;99.90
46085;DHT22;31823;47.032;8.310;2024-03-06T07:46:04;0.90;99.90
46085;DHT22;31823;47.032;8.310;2024-03-06T07:48:41;0.90;99.90
46085;DHT22;31823;47.032;8.310;2024-03-06T07:51:07;0.90;99.90
46085;DHT22;31823;47.032;8.310;2024-03-06T07:53:33;1.00;99.90
46085;DHT22;31823;47.032;8.310;2024-03-06T07:55:59;0.90;99.90
46085;DHT22;31823;47.032;8.310;2024-03-06T07:58:24;0.90;99.90
46085;DHT22;31823;47.032;8.310;2024-03-06T08:00:50;0.90;99.90
46085;DHT22;31823;47.032;8.310;2024-03-06T08:03:18;0.90;99.90
46085;DHT22;31823;47.032;8.310;2024-03-06T08:05:43;0.90;99.90
46085;DHT22;31823;47.032;8.310;2024-03-06T08:08:09;1.00;99.90
46085;DHT22;31823;47.032;8.310;2024-03-06T08:10:34;1.10;99.90
46085;DHT22;31823;47.032;8.310;2024-03-06T08:13:00;1.00;99.90
46085;DHT22;31823;47.032;8.310;2024-03-06T08:15:26;1.00;99.90
46085;DHT22;31823;47.032;8.310;2024-03-06T08:17:51;1.10;99.90
46085;DHT22;31823;47.032;8.310;2024-03-06T08:20:18;1.00;99.90
46085;DHT22;31823;47.032;8.310;2024-03-06T08:22:43;1.00;99.90
46085;DHT22;31823;47.032;8.310;2024-03-06T08:25:11;1.00;99.90
46085;DHT22;31823;47.032;8.310;2024-03-06T08:27:41;1.00;99.90
46085;DHT22;31823;47.032;8.310;2024-03-06T08:30:08;1.10;99.90
46085;DHT22;31823;47.032;8.310;2024-03-06T08:32:35;1.10;99.90
46085;DHT22;31823;47.032;8.310;2024-03-06T08:35:04;1.10;99.90
46085;DHT22;31823;47.032;8.310;2024-03-06T08:37:33;1.00;99.90
46085;DHT22;31823;47.032;8.310;2024-03-06T08:40:00;1.10;99.90
46085;DHT22;31823;47.032;8.310;2024-03-06T08:42:27;1.10;99.90
46085;DHT22;31823;47.032;8.310;2024-03-06T08:44:52;1.10;99.90
46085;DHT22;31823;47.032;8.310;2024-03-06T08:47:18;1.10;99.90
46085;DHT22;31823;47.032;8.310;2024-03-06T08:49:44;1.10;99.90
46085;DHT22;31823;47.032;8.310;2024-03-06T08:52:09;1.10;99.90
46085;DHT22;31823;47.032;8.310;2024-03-06T08:54:36;1.20;99.90
46085;DHT22;31823;47.032;8.310;2024-03-06T08:57:01;1.20;99.90
46085;DHT22;31823;47.032;8.310;2024-03-06T08:59:28;1.30;99.90
46085;DHT22;31823;47.032;8.310;2024-03-06T09:01:54;1.30;99.90
46085;DHT22;31823;47.032;8.310;2024-03-06T09:04:21;1.20;99.90
46085;DHT22;31823;47.032;8.310;2024-03-06T09:06:47;1.30;99.90
46085;DHT22;31823;47.032;8.310;2024-03-06T09:09:14;1.30;99.90
46085;DHT22;31823;47.032;8.310;2024-03-06T09:11:43;1.30;99.90
46085;DHT22;31823;47.032;8.310;2024-03-06T09:14:09;1.30;99.90
46085;DHT22;31823;47.032;8.310;2024-03-06T09:16:35;1.40;99.90
46085;DHT22;31823;47.032;8.310;2024-03-06T09:19:01;1.30;99.90
46085;DHT22;31823;47.032;8.310;2024-03-06T09:21:27;1.30;99.90
46085;DHT22;31823;47.032;8.310;2024-03-06T09:23:53;1.30;99.90
46085;DHT22;31823;47.032;8.310;2024-03-06T09:26:19;1.30;99.90
46085;DHT22;31823;47.032;8.310;2024-03-06T09:28:46;1.40;99.90
46085;DHT22;31823;47.032;8.310;2024-03-06T09:31:11;1.40;99.90
46085;DHT22;31823;47.032;8.310;2024-03-06T09:33:39;1.40;99.90
46085;DHT22;31823;47.032;8.310;2024-03-06T09:36:05;1.50;99.90
46085;DHT22;31823;47.032;8.310;2024-03-06T09:38:31;1.50;99.90
46085;DHT22;31823;47.032;8.310;2024-03-06T09:40:57;1.50;99.90
46085;DHT22;31823;47.032;8.310;2024-03-06T09:43:23;1.50;99.90
46085;DHT22;31823;47.032;8.310;2024-03-06T09:45:50;1.50;99.90
46085;DHT22;31823;47.032;8.310;2024-03-06T09:48:19;1.60;99.90
46085;DHT22;31823;47.032;8.310;2024-03-06T09:50:46;1.60;99.90
46085;DHT22;31823;47.032;8.310;2024-03-06T09:53:16;1.60;99.90
46085;DHT22;31823;47.032;8.310;2024-03-06T09:55:42;1.70;99.90
46085;DHT22;31823;47.032;8.310;2024-03-06T09:58:08;1.60;99.90
46085;DHT22;31823;47.032;8.310;2024-03-06T10:00:37;1.60;99.90
46085;DHT22;31823;47.032;8.310;2024-03-06T10:03:03;1.70;99.90
46085;DHT22;31823;47.032;8.310;2024-03-06T10:05:34;1.80;99.90
46085;DHT22;31823;47.032;8.310;2024-03-06T10:08:04;1.80;99.90
46085;DHT22;31823;47.032;8.310;2024-03-06T10:10:30;1.90;99.90
46085;DHT22;31823;47.032;8.310;2024-03-06T10:12:56;2.00;99.90
46085;DHT22;31823;47.032;8.310;2024-03-06T10:15:23;2.10;99.90
46085;DHT22;31823;47.032;8.310;2024-03-06T10:17:48;1.90;99.90
46085;DHT22;31823;47.032;8.310;2024-03-06T10:20:24;1.90;99.90
46085;DHT22;31823;47.032;8.310;2024-03-06T10:22:51;1.90;99.90
46085;DHT22;31823;47.032;8.310;2024-03-06T10:25:21;1.90;99.90
46085;DHT22;31823;47.032;8.310;2024-03-06T10:30:33;1.80;99.90
46085;DHT22;31823;47.032;8.310;2024-03-06T10:33:01;1.70;99.90
46085;DHT22;31823;47.032;8.310;2024-03-06T10:35:28;1.90;99.90
46085;DHT22;31823;47.032;8.310;2024-03-06T10:37:54;1.80;99.90
46085;DHT22;31823;47.032;8.310;2024-03-06T10:40:22;1.90;99.90
46085;DHT22;31823;47.032;8.310;2024-03-06T10:42:48;2.00;99.90
46085;DHT22;31823;47.032;8.310;2024-03-06T10:45:15;2.00;99.90
46085;DHT22;31823;47.032;8.310;2024-03-06T10:47:45;2.00;99.90
46085;DHT22;31823;47.032;8.310;2024-03-06T10:50:14;2.00;99.90
46085;DHT22;31823;47.032;8.310;2024-03-06T10:52:40;1.90;99.90
46085;DHT22;31823;47.032;8.310;2024-03-06T10:55:08;1.80;99.90
46085;DHT22;31823;47.032;8.310;2024-03-06T10:57:36;1.80;99.90
46085;DHT22;31823;47.032;8.310;2024-03-06T11:00:03;1.80;99.90
46085;DHT22;31823;47.032;8.310;2024-03-06T11:02:29;2.00;99.90
46085;DHT22;31823;47.032;8.310;2024-03-06T11:04:55;2.10;99.90
46085;DHT22;31823;47.032;8.310;2024-03-06T11:07:21;2.10;99.90
46085;DHT22;31823;47.032;8.310;2024-03-06T11:09:47;2.10;99.90
46085;DHT22;31823;47.032;8.310;2024-03-06T11:12:35;2.10;99.90
46085;DHT22;31823;47.032;8.310;2024-03-06T11:15:15;2.30;99.90
46085;DHT22;31823;47.032;8.310;2024-03-06T11:17:42;2.40;99.90
46085;DHT22;31823;47.032;8.310;2024-03-06T11:20:12;2.40;99.90
46085;DHT22;31823;47.032;8.310;2024-03-06T11:28:22;2.30;99.90
46085;DHT22;31823;47.032;8.310;2024-03-06T11:33:20;2.40;99.90
46085;DHT22;31823;47.032;8.310;2024-03-06T11:36:20;2.60;99.90
46085;DHT22;31823;47.032;8.310;2024-03-06T11:41:12;2.60;99.90
46085;DHT22;31823;47.032;8.310;2024-03-06T11:43:44;2.60;99.90
46085;DHT22;31823;47.032;8.310;2024-03-06T11:46:11;2.50;99.90
46085;DHT22;31823;47.032;8.310;2024-03-06T11:48:37;2.60;99.90
46085;DHT22;31823;47.032;8.310;2024-03-06T11:51:03;2.70;99.90
46085;DHT22;31823;47.032;8.310;2024-03-06T11:53:33;2.70;99.90
46085;DHT22;31823;47.032;8.310;2024-03-06T11:55:59;2.80;99.90
46085;DHT22;31823;47.032;8.310;2024-03-06T11:58:24;2.60;99.90
46085;DHT22;31823;47.032;8.310;2024-03-06T12:00:51;2.60;99.90
46085;DHT22;31823;47.032;8.310;2024-03-06T12:03:18;2.50;99.90
46085;DHT22;31823;47.032;8.310;2024-03-06T12:05:44;2.50;99.90
46085;DHT22;31823;47.032;8.310;2024-03-06T12:08:11;2.50;99.90
46085;DHT22;31823;47.032;8.310;2024-03-06T12:10:38;2.70;99.90
46085;DHT22;31823;47.032;8.310;2024-03-06T12:13:04;2.80;99.90
46085;DHT22;31823;47.032;8.310;2024-03-06T12:15:30;2.80;99.90
46085;DHT22;31823;47.032;8.310;2024-03-06T12:17:56;2.80;99.90
46085;DHT22;31823;47.032;8.310;2024-03-06T12:20:23;2.80;99.90
46085;DHT22;31823;47.032;8.310;2024-03-06T12:22:50;2.70;99.90
46085;DHT22;31823;47.032;8.310;2024-03-06T12:25:23;2.70;99.90
46085;DHT22;31823;47.032;8.310;2024-03-06T12:27:50;2.50;99.90
46085;DHT22;31823;47.032;8.310;2024-03-06T12:30:20;2.60;99.90
46085;DHT22;31823;47.032;8.310;2024-03-06T12:32:59;2.70;99.90
46085;DHT22;31823;47.032;8.310;2024-03-06T12:35:26;2.60;99.90
46085;DHT22;31823;47.032;8.310;2024-03-06T12:37:52;2.60;99.90
46085;DHT22;31823;47.032;8.310;2024-03-06T12:40:19;2.70;99.90
46085;DHT22;31823;47.032;8.310;2024-03-06T12:42:45;2.90;99.90
46085;DHT22;31823;47.032;8.310;2024-03-06T12:45:15;3.10;99.90
46085;DHT22;31823;47.032;8.310;2024-03-06T12:47:41;3.20;99.90
46085;DHT22;31823;47.032;8.310;2024-03-06T12:50:07;3.20;99.90
46085;DHT22;31823;47.032;8.310;2024-03-06T12:52:34;3.10;99.90
46085;DHT22;31823;47.032;8.310;2024-03-06T12:55:00;3.10;99.90
46085;DHT22;31823;47.032;8.310;2024-03-06T12:57:26;3.30;99.90
46085;DHT22;31823;47.032;8.310;2024-03-06T12:59:53;3.40;99.90
46085;DHT22;31823;47.032;8.310;2024-03-06T13:02:19;3.60;99.90
46085;DHT22;31823;47.032;8.310;2024-03-06T13:04:44;3.50;99.90
46085;DHT22;31823;47.032;8.310;2024-03-06T13:07:11;3.50;99.90
46085;DHT22;31823;47.032;8.310;2024-03-06T13:09:36;3.40;99.90
46085;DHT22;31823;47.032;8.310;2024-03-06T13:12:04;3.30;99.90
46085;DHT22;31823;47.032;8.310;2024-03-06T13:14:29;3.40;99.90
46085;DHT22;31823;47.032;8.310;2024-03-06T13:16:56;3.40;99.90
46085;DHT22;31823;47.032;8.310;2024-03-06T13:19:21;3.10;99.90
46085;DHT22;31823;47.032;8.310;2024-03-06T13:21:48;3.20;99.90
46085;DHT22;31823;47.032;8.310;2024-03-06T13:24:13;3.10;99.90
46085;DHT22;31823;47.032;8.310;2024-03-06T13:26:39;3.00;99.90
46085;DHT22;31823;47.032;8.310;2024-03-06T13:29:06;3.00;99.90
46085;DHT22;31823;47.032;8.310;2024-03-06T13:31:32;3.10;99.90
46085;DHT22;31823;47.032;8.310;2024-03-06T13:34:02;3.10;99.90
46085;DHT22;31823;47.032;8.310;2024-03-06T13:36:29;3.10;99.90
46085;DHT22;31823;47.032;8.310;2024-03-06T13:38:55;3.20;99.90
46085;DHT22;31823;47.032;8.310;2024-03-06T13:41:21;3.20;99.90
46085;DHT22;31823;47.032;8.310;2024-03-06T13:43:46;3.10;99.90
46085;DHT22;31823;47.032;8.310;2024-03-06T13:46:12;3.20;99.90
46085;DHT22;31823;47.032;8.310;2024-03-06T13:48:38;3.20;99.90
46085;DHT22;31823;47.032;8.310;2024-03-06T13:51:04;3.20;99.90
46085;DHT22;31823;47.032;8.310;2024-03-06T13:53:30;3.00;99.90
46085;DHT22;31823;47.032;8.310;2024-03-06T13:55:56;3.00;99.90
46085;DHT22;31823;47.032;8.310;2024-03-06T13:58:22;3.00;99.90
46085;DHT22;31823;47.032;8.310;2024-03-06T14:00:47;3.10;99.90
46085;DHT22;31823;47.032;8.310;2024-03-06T14:03:13;3.00;99.90
46085;DHT22;31823;47.032;8.310;2024-03-06T14:05:39;3.00;99.90
46085;DHT22;31823;47.032;8.310;2024-03-06T14:08:05;3.00;99.90
46085;DHT22;31823;47.032;8.310;2024-03-06T14:10:31;2.90;99.90
46085;DHT22;31823;47.032;8.310;2024-03-06T14:13:01;2.90;99.90
46085;DHT22;31823;47.032;8.310;2024-03-06T14:15:27;3.00;99.90
46085;DHT22;31823;47.032;8.310;2024-03-06T14:17:53;3.10;99.90
46085;DHT22;31823;47.032;8.310;2024-03-06T14:20:22;3.10;99.90
46085;DHT22;31823;47.032;8.310;2024-03-06T14:22:49;3.20;99.90
46085;DHT22;31823;47.032;8.310;2024-03-06T14:25:15;3.20;99.90
46085;DHT22;31823;47.032;8.310;2024-03-06T14:27:41;3.20;99.90
46085;DHT22;31823;47.032;8.310;2024-03-06T14:30:07;3.20;99.90
46085;DHT22;31823;47.032;8.310;2024-03-06T14:32:33;3.30;99.90
46085;DHT22;31823;47.032;8.310;2024-03-06T14:34:59;3.30;99.90
46085;DHT22;31823;47.032;8.310;2024-03-06T14:37:25;3.40;99.90
46085;DHT22;31823;47.032;8.310;2024-03-06T14:39:50;3.60;99.90
46085;DHT22;31823;47.032;8.310;2024-03-06T14:42:19;3.50;99.90
46085;DHT22;31823;47.032;8.310;2024-03-06T14:44:44;3.50;99.90
46085;DHT22;31823;47.032;8.310;2024-03-06T14:47:10;3.50;99.90
46085;DHT22;31823;47.032;8.310;2024-03-06T14:49:36;3.70;99.90
46085;DHT22;31823;47.032;8.310;2024-03-06T14:52:02;3.80;99.90
46085;DHT22;31823;47.032;8.310;2024-03-06T14:54:28;3.70;99.90
46085;DHT22;31823;47.032;8.310;2024-03-06T14:56:53;3.50;99.90
46085;DHT22;31823;47.032;8.310;2024-03-06T14:59:20;3.60;99.90
46085;DHT22;31823;47.032;8.310;2024-03-06T15:01:46;3.60;99.90
46085;DHT22;31823;47.032;8.310;2024-03-06T15:04:13;3.70;99.90
46085;DHT22;31823;47.032;8.310;2024-03-06T15:06:39;3.80;99.90
46085;DHT22;31823;47.032;8.310;2024-03-06T15:09:06;3.90;99.90
46085;DHT22;31823;47.032;8.310;2024-03-06T15:11:31;4.10;99.90
46085;DHT22;31823;47.032;8.310;2024-03-06T15:14:01;4.10;99.90
46085;DHT22;31823;47.032;8.310;2024-03-06T15:16:27;4.10;99.90
46085;DHT22;31823;47.032;8.310;2024-03-06T15:18:52;4.20;99.90
46085;DHT22;31823;47.032;8.310;2024-03-06T15:21:20;4.10;99.90
46085;DHT22;31823;47.032;8.310;2024-03-06T15:23:46;4.00;99.90
46085;DHT22;31823;47.032;8.310;2024-03-06T15:26:15;4.10;99.90
46085;DHT22;31823;47.032;8.310;2024-03-06T15:28:41;4.10;99.90
46085;DHT22;31823;47.032;8.310;2024-03-06T15:31:06;4.10;99.90
46085;DHT22;31823;47.032;8.310;2024-03-06T15:33:32;3.90;99.90
46085;DHT22;31823;47.032;8.310;2024-03-06T15:35:58;4.00;99.90
46085;DHT22;31823;47.032;8.310;2024-03-06T15:38:25;3.90;99.90
46085;DHT22;31823;47.032;8.310;2024-03-06T15:40:52;3.80;99.90
46085;DHT22;31823;47.032;8.310;2024-03-06T15:43:17;3.70;99.90
46085;DHT22;31823;47.032;8.310;2024-03-06T15:45:43;3.70;99.90
46085;DHT22;31823;47.032;8.310;2024-03-06T15:48:09;3.60;99.90
46085;DHT22;31823;47.032;8.310;2024-03-06T15:50:43;3.60;99.90
46085;DHT22;31823;47.032;8.310;2024-03-06T15:53:08;3.60;99.90